Time;durP1;ratioP1;P1;durP2;ratioP2;P2;SDS_P1;SDS_P2;PMS_P1;PMS_P2;Temp;Humidity;BMP_temperature;BMP_pressure;BME280_temperature;BME280_humidity;BME280_pressure;Samples;Min_cycle;Max_cycle;Signal;HPM_P1;HPM_P2
2024/03/12 00:00:50;;;;;;;;;;;4.80;99.90;;;;;;5039277;28;19924;-53
2024/03/12 00:03:15;;;;;;;;;;;4.70;99.90;;;;;;5043835;28;19913;-52
2024/03/12 00:05:41;;;;;;;;;;;4.70;99.90;;;;;;5034698;28;20285;-52
2024/03/12 00:08:07;;;;;;;;;;;4.70;99.90;;;;;;5030342;28;19913;-52
2024/03/12 00:10:33;;;;;;;;;;;4.70;99.90;;;;;;5031236;28;19905;-53
2024/03/12 00:13:01;;;;;;;;;;;4.80;99.90;;;;;;5031104;28;20292;-57
2024/03/12 00:15:27;;;;;;;;;;;4.80;99.90;;;;;;5030912;28;19936;-53
2024/03/12 00:17:53;;;;;;;;;;;4.90;99.90;;;;;;5030388;28;19956;-53
2024/03/12 00:20:29;;;;;;;;;;;4.80;99.90;;;;;;5030942;28;19920;-52
2024/03/12 00:22:55;;;;;;;;;;;4.90;99.90;;;;;;5030809;28;20385;-52
2024/03/12 00:25:21;;;;;;;;;;;4.70;99.90;;;;;;5030804;28;19956;-53
2024/03/12 00:27:46;;;;;;;;;;;4.60;99.90;;;;;;5030181;28;20007;-54
2024/03/12 00:30:13;;;;;;;;;;;4.50;99.90;;;;;;5030793;28;19913;-53
2024/03/12 00:32:39;;;;;;;;;;;4.40;99.90;;;;;;5038534;28;19905;-52
2024/03/12 00:35:06;;;;;;;;;;;4.40;99.90;;;;;;5030810;28;19909;-51
2024/03/12 00:37:34;;;;;;;;;;;4.30;99.90;;;;;;5037201;28;19955;-52
2024/03/12 00:40:00;;;;;;;;;;;4.30;99.90;;;;;;5039356;28;20408;-52
2024/03/12 00:42:26;;;;;;;;;;;4.20;99.90;;;;;;5044678;28;19912;-52
2024/03/12 00:44:51;;;;;;;;;;;4.30;99.90;;;;;;5040659;28;19921;-51
2024/03/12 00:47:17;;;;;;;;;;;4.30;99.90;;;;;;5030377;28;19909;-56
2024/03/12 00:49:45;;;;;;;;;;;4.40;99.90;;;;;;5029971;28;20450;-52
2024/03/12 00:52:11;;;;;;;;;;;4.50;99.90;;;;;;5038240;28;19913;-52
2024/03/12 00:54:36;;;;;;;;;;;4.60;99.90;;;;;;5030421;28;20488;-52
2024/03/12 00:57:02;;;;;;;;;;;4.70;99.90;;;;;;5030091;28;19913;-53
2024/03/12 00:59:29;;;;;;;;;;;4.70;99.90;;;;;;5029665;28;19905;-52
2024/03/12 01:01:54;;;;;;;;;;;4.80;99.90;;;;;;5046637;28;19908;-52
2024/03/12 01:04:21;;;;;;;;;;;4.80;99.90;;;;;;5029901;28;19916;-51
2024/03/12 01:06:49;;;;;;;;;;;4.90;99.90;;;;;;5029678;28;19913;-56
2024/03/12 01:09:17;;;;;;;;;;;4.90;99.90;;;;;;5033960;28;19906;-51
2024/03/12 01:11:43;;;;;;;;;;;4.90;99.90;;;;;;5033717;28;19947;-51
2024/03/12 01:14:08;;;;;;;;;;;5.00;99.90;;;;;;5041461;28;19944;-52
2024/03/12 01:16:34;;;;;;;;;;;5.00;99.90;;;;;;5041785;28;19966;-53
2024/03/12 01:18:59;;;;;;;;;;;5.00;99.90;;;;;;5032692;28;19913;-54
2024/03/12 01:21:24;;;;;;;;;;;5.10;99.90;;;;;;5035931;28;19919;-51
2024/03/12 01:23:50;;;;;;;;;;;5.10;99.90;;;;;;5037922;28;20384;-52
2024/03/12 01:26:15;;;;;;;;;;;5.20;99.90;;;;;;5030330;28;19909;-53
2024/03/12 01:28:41;;;;;;;;;;;5.10;99.90;;;;;;5029253;28;20011;-52
2024/03/12 01:31:07;;;;;;;;;;;5.10;99.90;;;;;;5030000;28;19909;-52
2024/03/12 01:33:34;;;;;;;;;;;5.10;99.90;;;;;;5029870;28;19916;-53
2024/03/12 01:36:18;;;;;;;;;;;5.20;99.90;;;;;;5038361;28;19964;-55
2024/03/12 01:38:54;;;;;;;;;;;5.20;99.90;;;;;;5029384;28;19912;-56
2024/03/12 01:41:20;;;;;;;;;;;5.20;99.90;;;;;;5030081;28;19909;-56
2024/03/12 01:43:59;;;;;;;;;;;5.20;99.90;;;;;;5029558;28;19927;-54
2024/03/12 01:46:28;;;;;;;;;;;5.30;99.90;;;;;;5037779;28;20277;-52
2024/03/12 01:48:54;;;;;;;;;;;5.20;99.90;;;;;;5037359;28;19908;-52
2024/03/12 01:51:20;;;;;;;;;;;5.20;99.90;;;;;;5035007;28;20004;-54
2024/03/12 01:53:46;;;;;;;;;;;5.30;99.90;;;;;;5032857;28;19913;-55
2024/03/12 01:56:11;;;;;;;;;;;5.30;99.90;;;;;;5041659;28;19981;-52
2024/03/12 01:58:37;;;;;;;;;;;5.30;99.90;;;;;;5015957;28;19925;-53
2024/03/12 02:01:02;;;;;;;;;;;5.30;99.90;;;;;;5028665;28;19919;-52
2024/03/12 02:03:32;;;;;;;;;;;5.40;99.90;;;;;;5031878;28;19948;-55
2024/03/12 02:05:58;;;;;;;;;;;5.50;99.90;;;;;;5033250;28;19915;-54
2024/03/12 02:08:23;;;;;;;;;;;5.50;99.90;;;;;;5032495;28;19990;-53
2024/03/12 02:10:49;;;;;;;;;;;5.50;99.90;;;;;;5033384;28;19905;-52
2024/03/12 02:13:14;;;;;;;;;;;5.50;99.90;;;;;;5033328;28;19909;-53
2024/03/12 02:15:41;;;;;;;;;;;5.50;99.90;;;;;;5033379;28;20402;-52
2024/03/12 02:18:09;;;;;;;;;;;5.50;99.90;;;;;;5032565;28;19916;-55
2024/03/12 02:20:35;;;;;;;;;;;5.60;99.90;;;;;;5033204;28;19909;-56
2024/03/12 02:23:00;;;;;;;;;;;5.50;99.90;;;;;;5033027;28;19912;-54
2024/03/12 02:25:26;;;;;;;;;;;5.50;99.90;;;;;;5033057;28;19913;-52
2024/03/12 02:27:51;;;;;;;;;;;5.50;99.90;;;;;;5032434;28;19908;-53
2024/03/12 02:30:17;;;;;;;;;;;5.60;99.90;;;;;;5033145;28;19913;-53
2024/03/12 02:32:42;;;;;;;;;;;5.60;99.90;;;;;;5033062;28;19974;-55
2024/03/12 02:35:11;;;;;;;;;;;5.60;99.90;;;;;;5032813;28;19921;-52
2024/03/12 02:37:38;;;;;;;;;;;5.60;99.90;;;;;;5032304;28;20377;-56
2024/03/12 02:40:12;;;;;;;;;;;5.60;99.90;;;;;;5032676;28;19940;-51
2024/03/12 02:42:41;;;;;;;;;;;5.60;99.90;;;;;;5041178;28;19963;-51
2024/03/12 02:45:06;;;;;;;;;;;5.70;99.90;;;;;;5032473;28;20552;-51
2024/03/12 02:47:32;;;;;;;;;;;5.70;99.90;;;;;;5032658;28;19948;-54
2024/03/12 02:49:57;;;;;;;;;;;5.80;99.90;;;;;;5032020;28;19917;-51
2024/03/12 02:52:26;;;;;;;;;;;5.80;99.90;;;;;;5032618;28;19956;-53
2024/03/12 02:54:52;;;;;;;;;;;5.80;99.90;;;;;;5033515;28;19967;-52
2024/03/12 02:57:17;;;;;;;;;;;5.90;99.90;;;;;;5047971;28;19909;-52
2024/03/12 02:59:43;;;;;;;;;;;5.90;99.90;;;;;;5048295;28;19913;-54
2024/03/12 03:02:09;;;;;;;;;;;5.90;99.90;;;;;;5032253;28;20270;-54
2024/03/12 03:04:36;;;;;;;;;;;5.90;99.90;;;;;;5032370;28;19917;-53
2024/03/12 03:07:04;;;;;;;;;;;6.00;99.90;;;;;;5040465;28;19971;-52
2024/03/12 03:09:30;;;;;;;;;;;6.00;99.90;;;;;;5031625;28;20292;-54
2024/03/12 03:11:55;;;;;;;;;;;6.00;99.90;;;;;;5041928;28;20396;-55
2024/03/12 03:14:21;;;;;;;;;;;6.00;99.90;;;;;;5037533;28;19945;-55
2024/03/12 03:16:48;;;;;;;;;;;6.00;99.90;;;;;;5031834;28;19913;-51
2024/03/12 03:19:13;;;;;;;;;;;6.10;99.90;;;;;;5039945;28;20350;-54
2024/03/12 03:21:39;;;;;;;;;;;6.10;99.90;;;;;;5032099;28;19909;-52
2024/03/12 03:24:04;;;;;;;;;;;6.10;99.90;;;;;;5034293;28;20389;-51
2024/03/12 03:26:30;;;;;;;;;;;6.10;99.90;;;;;;5037741;28;19983;-52
2024/03/12 03:28:56;;;;;;;;;;;6.10;99.90;;;;;;5039977;28;20375;-53
2024/03/12 03:31:21;;;;;;;;;;;6.10;99.90;;;;;;5031716;28;19984;-52
2024/03/12 03:33:47;;;;;;;;;;;6.10;99.90;;;;;;5031728;28;19913;-52
2024/03/12 03:36:15;;;;;;;;;;;6.10;99.90;;;;;;5031984;28;19913;-51
2024/03/12 03:38:41;;;;;;;;;;;6.10;99.90;;;;;;5047043;28;20007;-51
2024/03/12 03:41:07;;;;;;;;;;;6.10;99.90;;;;;;5040620;28;20448;-52
2024/03/12 03:43:33;;;;;;;;;;;6.10;99.90;;;;;;5031469;28;19919;-53
2024/03/12 03:45:58;;;;;;;;;;;6.10;99.90;;;;;;5049583;28;19912;-53
2024/03/12 03:48:24;;;;;;;;;;;6.10;99.90;;;;;;5050977;28;19912;-56
2024/03/12 03:50:49;;;;;;;;;;;6.20;99.90;;;;;;5034991;28;19912;-53
2024/03/12 03:53:15;;;;;;;;;;;6.10;99.90;;;;;;5047440;28;20427;-52
2024/03/12 03:55:40;;;;;;;;;;;6.10;99.90;;;;;;5047171;28;20420;-54
2024/03/12 03:58:06;;;;;;;;;;;6.10;99.90;;;;;;5034020;28;19921;-52
2024/03/12 04:00:35;;;;;;;;;;;6.20;99.90;;;;;;5036523;28;19913;-52
2024/03/12 04:03:02;;;;;;;;;;;6.10;99.90;;;;;;5033401;28;19916;-54
2024/03/12 04:05:28;;;;;;;;;;;6.10;99.90;;;;;;5042840;28;19934;-51
2024/03/12 04:07:54;;;;;;;;;;;6.10;99.90;;;;;;5040918;28;20420;-52
2024/03/12 04:10:22;;;;;;;;;;;6.20;99.90;;;;;;5039440;28;19944;-53
2024/03/12 04:12:48;;;;;;;;;;;6.20;99.90;;;;;;5039239;28;19910;-52
2024/03/12 04:15:14;;;;;;;;;;;6.30;99.90;;;;;;5034116;28;20284;-52
2024/03/12 04:17:43;;;;;;;;;;;6.30;99.90;;;;;;5050388;28;19909;-52
2024/03/12 04:20:10;;;;;;;;;;;6.40;99.90;;;;;;5034297;28;19995;-54
2024/03/12 04:22:37;;;;;;;;;;;6.40;99.90;;;;;;5043954;28;19920;-53
2024/03/12 04:25:04;;;;;;;;;;;6.40;99.90;;;;;;5038426;28;19913;-52
2024/03/12 04:27:30;;;;;;;;;;;6.40;99.90;;;;;;5030574;28;19917;-52
2024/03/12 04:29:55;;;;;;;;;;;6.50;99.90;;;;;;5031006;28;19905;-54
2024/03/12 04:32:21;;;;;;;;;;;6.50;99.90;;;;;;5037402;28;19959;-53
2024/03/12 04:34:46;;;;;;;;;;;6.50;99.90;;;;;;5038884;28;19941;-55
2024/03/12 04:37:12;;;;;;;;;;;6.50;99.90;;;;;;5038573;28;19913;-52
2024/03/12 04:39:38;;;;;;;;;;;6.60;99.90;;;;;;5030027;28;19915;-52
2024/03/12 04:42:09;;;;;;;;;;;6.60;99.90;;;;;;5039080;28;19905;-52
2024/03/12 04:44:34;;;;;;;;;;;6.70;99.90;;;;;;5038477;28;19935;-52
2024/03/12 04:47:00;;;;;;;;;;;6.70;99.90;;;;;;5030212;28;20000;-54
2024/03/12 04:49:26;;;;;;;;;;;6.60;99.90;;;;;;5038220;28;20392;-51
2024/03/12 04:51:51;;;;;;;;;;;6.70;99.90;;;;;;5030277;28;19948;-53
2024/03/12 04:54:18;;;;;;;;;;;6.60;99.90;;;;;;5038334;28;19909;-56
2024/03/12 04:56:44;;;;;;;;;;;6.70;99.90;;;;;;5030250;28;19908;-54
2024/03/12 04:59:10;;;;;;;;;;;6.70;99.90;;;;;;5029563;28;19964;-54
2024/03/12 05:01:36;;;;;;;;;;;6.70;99.90;;;;;;5030359;28;19909;-53
2024/03/12 05:04:01;;;;;;;;;;;6.70;99.90;;;;;;5030240;28;19909;-54
2024/03/12 05:06:27;;;;;;;;;;;6.70;99.90;;;;;;5030169;28;20011;-51
2024/03/12 05:08:55;;;;;;;;;;;6.70;99.90;;;;;;5029488;28;19917;-54
2024/03/12 05:11:21;;;;;;;;;;;6.70;99.90;;;;;;5030104;28;20008;-52
2024/03/12 05:13:47;;;;;;;;;;;6.70;99.90;;;;;;5030422;28;20556;-55
2024/03/12 05:16:13;;;;;;;;;;;6.70;99.90;;;;;;5030273;28;19909;-53
2024/03/12 05:18:38;;;;;;;;;;;6.80;99.90;;;;;;5029543;28;20373;-53
2024/03/12 05:21:04;;;;;;;;;;;6.70;99.90;;;;;;5031236;28;19935;-53
2024/03/12 05:23:29;;;;;;;;;;;6.70;99.90;;;;;;5029968;28;20329;-52
2024/03/12 05:25:55;;;;;;;;;;;6.70;99.90;;;;;;5029858;28;19909;-52
2024/03/12 05:28:20;;;;;;;;;;;6.70;99.90;;;;;;5029228;28;19971;-51
2024/03/12 05:30:48;;;;;;;;;;;6.80;99.90;;;;;;5030163;28;19999;-55
2024/03/12 05:33:14;;;;;;;;;;;6.80;99.90;;;;;;5037862;28;19967;-54
2024/03/12 05:35:51;;;;;;;;;;;6.80;99.90;;;;;;5033928;28;19982;-55
2024/03/12 05:38:33;;;;;;;;;;;6.80;99.90;;;;;;5038940;28;19917;-53
2024/03/12 05:49:06;;;;;;;;;;;6.80;99.90;;;;;;5044718;28;19938;-52
2024/03/12 05:51:32;;;;;;;;;;;6.80;99.90;;;;;;5053681;28;19908;-52
2024/03/12 05:53:58;;;;;;;;;;;6.80;99.90;;;;;;5043326;28;19909;-52
2024/03/12 05:56:23;;;;;;;;;;;6.80;99.90;;;;;;5041816;28;19963;-51
2024/03/12 05:58:49;;;;;;;;;;;6.80;99.90;;;;;;5033357;28;19916;-52
2024/03/12 06:01:15;;;;;;;;;;;6.90;99.90;;;;;;5041346;28;19905;-51
2024/03/12 06:03:40;;;;;;;;;;;7.00;99.90;;;;;;5033339;28;20004;-52
2024/03/12 06:06:07;;;;;;;;;;;7.00;99.90;;;;;;5041678;28;20004;-52
2024/03/12 06:08:33;;;;;;;;;;;7.00;99.90;;;;;;5038743;28;19927;-55
2024/03/12 06:10:58;;;;;;;;;;;7.00;99.90;;;;;;5051753;28;19919;-54
2024/03/12 06:13:24;;;;;;;;;;;7.00;99.90;;;;;;5033351;28;20357;-55
2024/03/12 06:15:50;;;;;;;;;;;7.00;99.90;;;;;;5041322;28;19917;-51
2024/03/12 06:18:18;;;;;;;;;;;7.00;99.90;;;;;;5040874;28;19913;-54
2024/03/12 06:20:45;;;;;;;;;;;7.10;99.90;;;;;;5033298;28;20423;-51
2024/03/12 06:23:14;;;;;;;;;;;7.10;99.90;;;;;;5032915;28;19999;-52
2024/03/12 06:25:40;;;;;;;;;;;7.10;99.90;;;;;;5040170;28;20471;-52
2024/03/12 06:28:06;;;;;;;;;;;7.00;99.90;;;;;;5035914;28;19905;-51
2024/03/12 06:30:35;;;;;;;;;;;7.00;99.90;;;;;;5046146;28;20451;-52
2024/03/12 06:33:04;;;;;;;;;;;7.10;99.90;;;;;;5038051;28;20324;-54
2024/03/12 06:35:29;;;;;;;;;;;7.10;99.90;;;;;;5040677;28;20285;-52
2024/03/12 06:37:55;;;;;;;;;;;7.10;99.90;;;;;;5039580;28;19913;-57
2024/03/12 06:40:25;;;;;;;;;;;7.20;99.90;;;;;;5032240;28;20361;-52
2024/03/12 06:42:54;;;;;;;;;;;7.10;99.90;;;;;;5032394;28;19986;-53
2024/03/12 06:45:21;;;;;;;;;;;7.20;99.90;;;;;;5044486;28;19917;-56
2024/03/12 06:47:48;;;;;;;;;;;7.20;99.90;;;;;;5051276;28;19952;-51
2024/03/12 06:50:14;;;;;;;;;;;7.20;99.90;;;;;;5043446;28;20369;-55
2024/03/12 06:52:41;;;;;;;;;;;7.20;99.90;;;;;;5051802;28;19919;-52
2024/03/12 06:55:12;;;;;;;;;;;7.30;99.90;;;;;;5043456;28;19905;-52
2024/03/12 06:57:39;;;;;;;;;;;7.40;99.90;;;;;;5051281;28;19912;-52
2024/03/12 07:00:09;;;;;;;;;;;7.50;99.90;;;;;;5041115;28;20379;-52
2024/03/12 07:02:38;;;;;;;;;;;7.40;99.90;;;;;;5038627;28;19931;-52
2024/03/12 07:05:09;;;;;;;;;;;7.40;99.90;;;;;;5040914;28;19913;-54
2024/03/12 07:07:35;;;;;;;;;;;7.40;99.90;;;;;;5031668;28;19909;-53
2024/03/12 07:10:03;;;;;;;;;;;7.50;99.90;;;;;;5032732;28;20023;-52
2024/03/12 07:12:31;;;;;;;;;;;7.40;99.90;;;;;;5037663;28;19935;-52
2024/03/12 07:14:56;;;;;;;;;;;7.50;99.90;;;;;;5031370;28;19916;-53
2024/03/12 07:17:22;;;;;;;;;;;7.60;99.90;;;;;;5036674;28;19953;-54
2024/03/12 07:19:49;;;;;;;;;;;7.60;99.90;;;;;;5042666;28;19913;-55
2024/03/12 07:22:17;;;;;;;;;;;7.50;99.90;;;;;;5047921;28;19909;-53
2024/03/12 07:24:43;;;;;;;;;;;7.60;99.90;;;;;;5039430;28;19936;-53
2024/03/12 07:27:09;;;;;;;;;;;7.50;99.90;;;;;;5031367;28;20085;-55
2024/03/12 07:29:34;;;;;;;;;;;7.50;99.90;;;;;;5037398;28;20042;-52
2024/03/12 07:32:01;;;;;;;;;;;7.50;99.90;;;;;;5051424;28;19917;-56
2024/03/12 07:34:27;;;;;;;;;;;7.50;99.90;;;;;;5045959;28;19916;-56
2024/03/12 07:36:52;;;;;;;;;;;7.50;99.90;;;;;;5031018;28;20356;-52
2024/03/12 07:39:31;;;;;;;;;;;7.50;99.90;;;;;;5034521;28;20395;-55
2024/03/12 07:42:00;;;;;;;;;;;7.50;99.90;;;;;;5041787;28;20291;-55
2024/03/12 07:44:26;;;;;;;;;;;7.60;99.90;;;;;;5021013;28;19913;-53
2024/03/12 07:46:52;;;;;;;;;;;7.60;99.90;;;;;;5039334;28;19905;-55
2024/03/12 07:49:21;;;;;;;;;;;7.50;99.90;;;;;;5038205;28;20288;-55
2024/03/12 07:51:50;;;;;;;;;;;7.50;99.90;;;;;;5030881;28;20328;-56
2024/03/12 07:54:18;;;;;;;;;;;7.50;99.90;;;;;;5038860;28;19913;-55
2024/03/12 07:56:45;;;;;;;;;;;7.50;99.90;;;;;;5038955;28;19913;-53
2024/03/12 07:59:11;;;;;;;;;;;7.60;99.90;;;;;;5029926;28;20365;-56
2024/03/12 08:01:36;;;;;;;;;;;7.60;99.90;;;;;;5030079;28;20004;-55
2024/03/12 08:04:03;;;;;;;;;;;7.60;99.90;;;;;;5032643;28;19917;-55
2024/03/12 08:06:28;;;;;;;;;;;7.50;99.90;;;;;;5044899;28;19975;-58
2024/03/12 08:08:54;;;;;;;;;;;7.50;99.90;;;;;;5029890;28;20326;-57
2024/03/12 08:11:19;;;;;;;;;;;7.50;99.90;;;;;;5034663;28;19923;-54
2024/03/12 08:13:47;;;;;;;;;;;7.50;99.90;;;;;;5042661;28;19913;-55
2024/03/12 08:16:15;;;;;;;;;;;7.50;99.90;;;;;;5041934;28;20372;-57
2024/03/12 08:18:41;;;;;;;;;;;7.50;99.90;;;;;;5034449;28;19968;-53
2024/03/12 08:21:08;;;;;;;;;;;7.60;99.90;;;;;;5030184;28;19905;-53
2024/03/12 08:23:34;;;;;;;;;;;7.60;99.90;;;;;;5044768;28;19905;-53
2024/03/12 08:26:01;;;;;;;;;;;7.60;99.90;;;;;;5041706;28;19912;-52
2024/03/12 08:28:26;;;;;;;;;;;7.60;99.90;;;;;;5041332;28;19909;-54
2024/03/12 08:30:53;;;;;;;;;;;7.70;99.90;;;;;;5033867;28;20384;-54
2024/03/12 08:33:19;;;;;;;;;;;7.60;99.90;;;;;;5045892;28;19920;-56
2024/03/12 08:35:44;;;;;;;;;;;7.60;99.90;;;;;;5038325;28;19913;-53
2024/03/12 08:38:10;;;;;;;;;;;7.60;99.90;;;;;;5029545;28;19951;-53
2024/03/12 08:40:35;;;;;;;;;;;7.50;99.90;;;;;;5036301;28;19912;-55
2024/03/12 08:43:01;;;;;;;;;;;7.60;99.90;;;;;;5049846;28;19915;-53
2024/03/12 08:45:27;;;;;;;;;;;7.70;99.90;;;;;;5044655;28;19982;-51
2024/03/12 08:47:52;;;;;;;;;;;7.60;99.90;;;;;;5030050;28;19913;-52
2024/03/12 08:50:17;;;;;;;;;;;7.60;99.90;;;;;;5037507;28;19992;-53
2024/03/12 08:52:43;;;;;;;;;;;7.70;99.90;;;;;;5038034;28;19913;-54
2024/03/12 08:55:08;;;;;;;;;;;7.60;99.90;;;;;;5029468;28;19909;-52
2024/03/12 08:57:34;;;;;;;;;;;7.50;99.90;;;;;;5037795;28;19955;-53
2024/03/12 09:00:01;;;;;;;;;;;7.40;99.90;;;;;;5037489;28;20305;-53
2024/03/12 09:02:27;;;;;;;;;;;7.40;99.90;;;;;;5043095;28;19912;-53
2024/03/12 09:04:53;;;;;;;;;;;7.40;99.90;;;;;;5040435;28;19928;-54
2024/03/12 09:07:19;;;;;;;;;;;7.50;99.90;;;;;;5038002;28;19920;-54
2024/03/12 09:09:45;;;;;;;;;;;7.40;99.90;;;;;;5029331;28;20274;-51
2024/03/12 09:12:10;;;;;;;;;;;7.30;99.90;;;;;;5037572;28;19920;-53
2024/03/12 09:14:36;;;;;;;;;;;7.40;99.90;;;;;;5029579;28;19967;-55
2024/03/12 09:17:05;;;;;;;;;;;7.40;99.90;;;;;;5037481;28;19913;-53
2024/03/12 09:19:30;;;;;;;;;;;7.50;99.90;;;;;;5034346;28;20297;-54
2024/03/12 09:21:58;;;;;;;;;;;7.50;99.90;;;;;;5040018;28;19908;-57
2024/03/12 09:24:24;;;;;;;;;;;7.50;99.90;;;;;;5033730;28;19971;-54
2024/03/12 09:26:53;;;;;;;;;;;7.50;99.90;;;;;;5048525;28;20373;-53
2024/03/12 09:29:20;;;;;;;;;;;7.50;99.90;;;;;;5045535;28;20301;-54
2024/03/12 09:31:46;;;;;;;;;;;7.40;99.90;;;;;;5045175;28;19912;-53
2024/03/12 09:34:12;;;;;;;;;;;7.50;99.90;;;;;;5048604;28;20364;-58
2024/03/12 09:36:37;;;;;;;;;;;7.40;99.90;;;;;;5035185;28;20496;-57
2024/03/12 09:39:10;;;;;;;;;;;7.40;99.90;;;;;;5038343;28;19999;-51
2024/03/12 09:41:38;;;;;;;;;;;7.50;99.90;;;;;;5034603;28;19909;-53
2024/03/12 09:44:05;;;;;;;;;;;7.40;99.90;;;;;;5047115;28;19974;-56
2024/03/12 09:46:30;;;;;;;;;;;7.40;99.90;;;;;;5043103;28;20432;-57
2024/03/12 09:48:56;;;;;;;;;;;7.40;99.90;;;;;;5036644;28;20001;-57
2024/03/12 09:51:22;;;;;;;;;;;7.40;99.90;;;;;;5033848;28;20175;-56
2024/03/12 09:53:48;;;;;;;;;;;7.20;99.90;;;;;;5041053;28;20254;-54
2024/03/12 09:56:15;;;;;;;;;;;7.20;99.90;;;;;;5040313;28;20265;-52
2024/03/12 09:58:40;;;;;;;;;;;7.30;99.90;;;;;;5048408;28;19917;-54
2024/03/12 10:01:06;;;;;;;;;;;7.30;99.90;;;;;;5048818;28;20003;-52
2024/03/12 10:03:31;;;;;;;;;;;7.30;99.90;;;;;;5043260;28;19909;-53
2024/03/12 10:05:57;;;;;;;;;;;7.40;99.90;;;;;;5038157;28;19916;-54
2024/03/12 10:08:28;;;;;;;;;;;7.50;99.90;;;;;;5035931;28;19968;-55
2024/03/12 10:10:53;;;;;;;;;;;7.50;99.90;;;;;;5045829;28;19932;-56
2024/03/12 10:13:19;;;;;;;;;;;7.40;99.90;;;;;;5044788;28;20007;-54
2024/03/12 10:15:56;;;;;;;;;;;7.40;99.90;;;;;;5044436;28;19913;-55
2024/03/12 10:18:22;;;;;;;;;;;7.50;99.90;;;;;;5041166;28;20311;-53
2024/03/12 10:20:54;;;;;;;;;;;7.50;99.90;;;;;;5048891;28;19908;-54
2024/03/12 10:23:21;;;;;;;;;;;7.60;99.90;;;;;;5049632;28;20012;-52
2024/03/12 10:25:47;;;;;;;;;;;7.70;99.90;;;;;;5052644;28;20372;-55
2024/03/12 10:28:19;;;;;;;;;;;7.70;99.90;;;;;;5052084;28;19912;-53
2024/03/12 10:30:45;;;;;;;;;;;7.60;99.90;;;;;;5045063;28;19909;-54
2024/03/12 10:33:13;;;;;;;;;;;7.70;99.90;;;;;;5043480;28;20388;-55
2024/03/12 10:35:39;;;;;;;;;;;7.70;99.90;;;;;;5052126;28;19913;-54
2024/03/12 10:38:06;;;;;;;;;;;7.80;99.90;;;;;;5052007;28;19944;-55
2024/03/12 10:40:32;;;;;;;;;;;7.80;99.90;;;;;;5046581;28;19920;-54
2024/03/12 10:42:58;;;;;;;;;;;7.80;99.90;;;;;;5041325;28;19920;-55
2024/03/12 10:45:24;;;;;;;;;;;7.80;99.90;;;;;;5043381;28;19923;-54
2024/03/12 10:47:50;;;;;;;;;;;8.00;99.90;;;;;;5043419;28;19908;-57
2024/03/12 10:50:19;;;;;;;;;;;8.00;99.90;;;;;;5040025;28;20387;-56
2024/03/12 10:52:45;;;;;;;;;;;8.10;99.90;;;;;;5031918;28;20384;-57
2024/03/12 10:55:23;;;;;;;;;;;8.20;99.90;;;;;;5031727;28;20004;-57
2024/03/12 10:57:53;;;;;;;;;;;8.20;99.90;;;;;;5040275;28;19928;-53
2024/03/12 11:00:25;;;;;;;;;;;8.20;99.90;;;;;;5044294;28;19913;-56
2024/03/12 11:02:51;;;;;;;;;;;8.30;99.90;;;;;;5044038;28;19928;-57
2024/03/12 11:05:19;;;;;;;;;;;8.20;99.90;;;;;;5043403;28;20339;-57
2024/03/12 11:07:44;;;;;;;;;;;8.20;99.90;;;;;;5042787;28;19908;-57
2024/03/12 11:10:10;;;;;;;;;;;8.10;99.90;;;;;;5051633;28;19913;-57
2024/03/12 11:12:36;;;;;;;;;;;8.00;99.90;;;;;;5051582;28;20391;-55
2024/03/12 11:15:02;;;;;;;;;;;7.90;99.90;;;;;;5041875;28;20277;-57
2024/03/12 11:17:28;;;;;;;;;;;8.00;99.90;;;;;;5031473;28;19909;-59
2024/03/12 11:19:56;;;;;;;;;;;8.10;99.90;;;;;;5039552;28;19908;-58
2024/03/12 11:22:23;;;;;;;;;;;8.10;99.90;;;;;;5051222;28;19909;-55
2024/03/12 11:24:49;;;;;;;;;;;8.00;99.90;;;;;;5051430;28;20019;-52
2024/03/12 11:27:21;;;;;;;;;;;8.00;99.90;;;;;;5046884;28;20392;-55
2024/03/12 11:30:08;;;;;;;;;;;8.10;99.90;;;;;;5052495;28;20222;-56
2024/03/12 11:32:48;;;;;;;;;;;8.10;99.90;;;;;;5053895;28;19978;-56
2024/03/12 11:35:17;;;;;;;;;;;8.10;99.90;;;;;;5051277;28;19905;-57
2024/03/12 11:38:00;;;;;;;;;;;8.00;99.90;;;;;;5054019;28;19920;-56
2024/03/12 11:40:37;;;;;;;;;;;8.20;99.90;;;;;;5052199;28;19912;-55
2024/03/12 11:43:03;;;;;;;;;;;8.30;99.90;;;;;;5049999;28;19913;-56
2024/03/12 11:45:34;;;;;;;;;;;8.50;99.90;;;;;;5051366;28;19923;-57
2024/03/12 11:48:00;;;;;;;;;;;8.60;99.90;;;;;;5058226;28;19908;-60
2024/03/12 11:50:30;;;;;;;;;;;8.60;99.90;;;;;;5054107;28;20111;-56
2024/03/12 11:53:14;;;;;;;;;;;8.70;99.90;;;;;;5052760;28;19989;-55
2024/03/12 11:55:57;;;;;;;;;;;8.90;99.90;;;;;;5054072;28;19913;-57
2024/03/12 11:58:31;;;;;;;;;;;9.10;99.90;;;;;;5028895;28;20404;-56
2024/03/12 12:01:01;;;;;;;;;;;9.50;99.90;;;;;;5031276;28;19951;-56
2024/03/12 12:03:26;;;;;;;;;;;9.90;99.90;;;;;;5037428;28;20391;-57
2024/03/12 12:05:54;;;;;;;;;;;10.20;99.90;;;;;;5030427;28;19987;-60
2024/03/12 12:08:20;;;;;;;;;;;10.30;99.90;;;;;;5023817;28;19905;-53
2024/03/12 12:11:01;;;;;;;;;;;10.20;99.90;;;;;;5050387;28;19916;-55
2024/03/12 12:13:27;;;;;;;;;;;10.30;99.90;;;;;;5038487;28;20095;-57
2024/03/12 12:15:56;;;;;;;;;;;10.40;99.90;;;;;;5047128;28;19986;-55
2024/03/12 12:18:22;;;;;;;;;;;10.20;99.90;;;;;;5045499;28;20019;-53
2024/03/12 12:20:48;;;;;;;;;;;10.00;99.90;;;;;;5037958;28;20401;-55
2024/03/12 12:23:14;;;;;;;;;;;9.90;99.90;;;;;;5041752;28;19912;-55
2024/03/12 12:25:39;;;;;;;;;;;9.60;99.90;;;;;;5035553;28;19909;-56
2024/03/12 12:28:07;;;;;;;;;;;9.50;99.90;;;;;;5039333;28;20312;-58
2024/03/12 12:30:35;;;;;;;;;;;9.40;99.90;;;;;;5041750;28;19913;-56
2024/03/12 12:33:01;;;;;;;;;;;9.50;99.90;;;;;;5040820;28;20000;-56
2024/03/12 12:35:28;;;;;;;;;;;9.40;99.90;;;;;;5034724;28;19913;-53
2024/03/12 12:37:53;;;;;;;;;;;9.30;99.90;;;;;;5032532;28;20005;-53
2024/03/12 12:40:20;;;;;;;;;;;9.30;99.90;;;;;;5036421;28;20009;-57
2024/03/12 12:42:50;;;;;;;;;;;9.20;99.90;;;;;;5039350;28;19913;-52
2024/03/12 12:45:16;;;;;;;;;;;9.20;99.90;;;;;;5036780;28;20353;-53
2024/03/12 12:47:50;;;;;;;;;;;9.10;99.90;;;;;;5037873;28;19905;-55
2024/03/12 12:50:26;;;;;;;;;;;9.10;99.90;;;;;;5035798;28;19912;-55
2024/03/12 12:52:59;;;;;;;;;;;9.00;99.90;;;;;;5037955;28;19905;-56
2024/03/12 12:55:25;;;;;;;;;;;9.20;99.90;;;;;;5041389;28;19938;-52
2024/03/12 12:58:00;;;;;;;;;;;9.30;99.90;;;;;;5041232;28;20000;-57
2024/03/12 13:00:26;;;;;;;;;;;9.40;99.90;;;;;;5035033;28;19986;-54
2024/03/12 13:02:51;;;;;;;;;;;9.40;99.90;;;;;;5032546;28;20381;-56
2024/03/12 13:05:23;;;;;;;;;;;9.40;99.90;;;;;;5045796;28;19917;-52
2024/03/12 13:07:49;;;;;;;;;;;9.60;99.90;;;;;;5037431;28;19928;-55
2024/03/12 13:10:18;;;;;;;;;;;9.60;99.90;;;;;;5022997;28;20404;-53
2024/03/12 13:12:44;;;;;;;;;;;9.70;99.90;;;;;;5049247;28;19909;-53
2024/03/12 13:15:25;;;;;;;;;;;9.70;99.90;;;;;;5030260;28;19909;-54
2024/03/12 13:17:53;;;;;;;;;;;9.70;99.90;;;;;;5037073;28;19909;-50
2024/03/12 13:20:19;;;;;;;;;;;9.70;99.90;;;;;;5041386;28;19918;-52
2024/03/12 13:22:45;;;;;;;;;;;9.70;99.90;;;;;;5033914;28;20379;-52
2024/03/12 13:25:11;;;;;;;;;;;9.60;99.90;;;;;;5047979;28;19924;-57
2024/03/12 13:27:36;;;;;;;;;;;9.50;99.90;;;;;;5043422;28;20091;-53
2024/03/12 13:30:02;;;;;;;;;;;9.60;99.90;;;;;;5045133;28;20273;-55
2024/03/12 13:32:27;;;;;;;;;;;9.60;99.90;;;;;;5037676;28;20011;-53
2024/03/12 13:34:54;;;;;;;;;;;9.70;99.90;;;;;;5037246;28;20445;-53
2024/03/12 13:37:20;;;;;;;;;;;9.70;99.90;;;;;;5045389;28;19913;-58
2024/03/12 13:39:45;;;;;;;;;;;9.80;99.90;;;;;;5044195;28;19942;-55
2024/03/12 13:42:11;;;;;;;;;;;9.90;99.90;;;;;;5038553;28;20453;-57
2024/03/12 13:44:37;;;;;;;;;;;10.00;99.90;;;;;;5028912;28;19917;-57
2024/03/12 13:47:03;;;;;;;;;;;10.00;99.90;;;;;;5037418;28;19913;-55
2024/03/12 13:49:28;;;;;;;;;;;10.10;99.90;;;;;;5033504;28;20314;-56
2024/03/12 13:51:55;;;;;;;;;;;10.00;99.90;;;;;;5032441;28;19928;-60
2024/03/12 13:54:20;;;;;;;;;;;10.00;99.90;;;;;;5040604;28;20008;-58
2024/03/12 13:56:45;;;;;;;;;;;10.40;99.90;;;;;;5033154;28;20048;-55
2024/03/12 13:59:12;;;;;;;;;;;10.50;99.90;;;;;;5037412;28;19909;-56
2024/03/12 14:01:38;;;;;;;;;;;10.80;99.90;;;;;;5039610;28;19909;-57
2024/03/12 14:04:04;;;;;;;;;;;11.40;99.90;;;;;;5042821;28;19920;-57
2024/03/12 14:06:32;;;;;;;;;;;11.70;99.90;;;;;;5035915;28;19960;-53
2024/03/12 14:08:57;;;;;;;;;;;11.90;99.90;;;;;;5043813;28;19938;-52
2024/03/12 14:11:25;;;;;;;;;;;11.90;99.90;;;;;;5052992;28;20003;-55
2024/03/12 14:13:50;;;;;;;;;;;11.90;99.90;;;;;;5036827;28;19921;-52
2024/03/12 14:16:16;;;;;;;;;;;11.90;99.90;;;;;;5043613;28;19979;-55
2024/03/12 14:18:43;;;;;;;;;;;11.80;99.90;;;;;;5045540;28;19955;-56
2024/03/12 14:21:09;;;;;;;;;;;11.70;99.90;;;;;;5034604;28;19977;-55
2024/03/12 14:23:35;;;;;;;;;;;11.90;99.90;;;;;;5036856;28;20380;-58
2024/03/12 14:26:00;;;;;;;;;;;12.00;99.90;;;;;;5041602;28;19936;-55
2024/03/12 14:28:26;;;;;;;;;;;11.90;99.90;;;;;;5039339;28;19905;-59
2024/03/12 14:30:54;;;;;;;;;;;11.80;99.90;;;;;;5040743;28;19921;-57
2024/03/12 14:33:19;;;;;;;;;;;11.70;99.90;;;;;;5032313;28;19909;-54
2024/03/12 14:35:47;;;;;;;;;;;11.80;99.90;;;;;;5032413;28;19963;-55